Yaroslavl', Russia
Current Conditions -  °F | °C
As of 7:00 AM on Monday 26 Jan 2015 (Local Time) from UUDL Reporting Station
Overcast Overcast  
Wind Chill:   Ceiling: 1600
Heat Index: 10°   Visibility: 6mi
Dew Point: -2°   Wind: 7mph
Humidity: 57%   Direction: 160°SSE
Pressure: 30.3"   Gusts: NA
Location:  57.41°N, 39.46°E
Report Text: UUDL 260400Z 16003MPS 9999 BKN016 OVC059 M12/M19 Q1026 NOSIGRMK QFE761
Loading
Personal Weather Stations






























Interactive Weather Map New forecast layout! Learn more

10-Day Weather Forecast

Advertisements
Track Severe Weather on mobile